Time;durP1;ratioP1;P1;durP2;ratioP2;P2;SDS_P1;SDS_P2;PMS_P1;PMS_P2;Temp;Humidity;BMP_temperature;BMP_pressure;BME280_temperature;BME280_humidity;BME280_pressure;Samples;Min_cycle;Max_cycle;Signal;HPM_P1;HPM_P2
2021/07/05 00:01:07;;;;;;;2.00;0.45;;;;;;;-142.37;100.00;59669.53;5014723;28;20457;-61
2021/07/05 00:03:33;;;;;;;1.77;0.47;;;;;;;-142.37;100.00;59669.53;4997523;28;20041;-62
2021/07/05 00:05:58;;;;;;;1.58;0.40;;;;;;;-142.37;100.00;59669.53;5014571;28;20171;-61
2021/07/05 00:08:23;;;;;;;0.93;0.38;;;;;;;-142.37;100.00;59669.53;5014914;28;20041;-61
2021/07/05 00:10:49;;;;;;;1.85;0.40;;;;;;;-142.37;100.00;59669.53;5014811;28;20028;-62
2021/07/05 00:13:14;;;;;;;0.35;0.32;;;;;;;-142.37;100.00;59669.53;5014582;28;20100;-61
2021/07/05 00:15:40;;;;;;;1.00;0.50;;;;;;;-142.37;100.00;59669.53;5014670;28;20049;-62
2021/07/05 00:18:08;;;;;;;0.68;0.60;;;;;;;-142.37;100.00;59669.53;5014540;28;20108;-62
2021/07/05 00:20:41;;;;;;;0.55;0.32;;;;;;;-142.37;100.00;59669.53;5014578;28;20413;-62
2021/07/05 00:23:08;;;;;;;1.33;0.37;;;;;;;-142.37;100.00;59669.53;5014468;28;20101;-62
2021/07/05 00:25:34;;;;;;;0.57;0.30;;;;;;;-142.37;100.00;59669.53;5014604;28;20108;-63
2021/07/05 00:27:59;;;;;;;0.63;0.40;;;;;;;-142.37;100.00;59669.53;5014314;28;20116;-62
2021/07/05 00:30:26;;;;;;;0.63;0.40;;;;;;;-142.37;100.00;59669.53;5012479;28;20149;-62
2021/07/05 00:32:52;;;;;;;0.85;0.40;;;;;;;-142.37;100.00;59669.53;4994528;28;20033;-63
2021/07/05 00:35:19;;;;;;;1.60;0.43;;;;;;;-142.37;100.00;59669.53;4994718;28;20033;-62
2021/07/05 00:37:45;;;;;;;0.77;0.45;;;;;;;-142.37;100.00;59669.53;4994772;28;20033;-61
2021/07/05 00:40:11;;;;;;;1.27;0.60;;;;;;;-142.37;100.00;59669.53;4994582;28;20365;-61
2021/07/05 00:42:37;;;;;;;1.20;0.40;;;;;;;-142.37;100.00;59669.53;4994562;28;20077;-62
2021/07/05 00:45:05;;;;;;;0.85;0.35;;;;;;;-142.37;100.00;59669.53;4994163;28;20058;-61
2021/07/05 00:47:32;;;;;;;0.90;0.40;;;;;;;-142.37;100.00;59669.53;4994598;28;20029;-61
2021/07/05 00:49:58;;;;;;;1.65;0.50;;;;;;;-142.37;100.00;59669.53;4994335;28;20106;-61
2021/07/05 00:52:23;;;;;;;1.00;0.32;;;;;;;-142.37;100.00;59669.53;4994398;28;20113;-61
2021/07/05 00:54:49;;;;;;;1.42;0.40;;;;;;;-142.37;100.00;59669.53;4994102;28;20109;-62
2021/07/05 00:57:21;;;;;;;0.80;0.30;;;;;;;-142.37;100.00;59669.53;4994097;28;20026;-62
2021/07/05 00:59:48;;;;;;;2.05;0.32;;;;;;;-142.37;100.00;59669.53;4994448;28;20018;-62
2021/07/05 01:02:15;;;;;;;0.95;0.40;;;;;;;-142.37;100.00;59669.53;4994131;28;20082;-61
2021/07/05 01:04:41;;;;;;;1.30;0.30;;;;;;;-142.37;100.00;59669.53;4994231;28;20108;-62
2021/07/05 01:07:07;;;;;;;1.65;0.63;;;;;;;-142.37;100.00;59669.53;4993843;28;20054;-62
2021/07/05 01:09:32;;;;;;;2.35;0.73;;;;;;;-142.37;100.00;59669.53;4994033;28;20022;-61
2021/07/05 01:11:57;;;;;;;0.90;0.50;;;;;;;-142.37;100.00;59669.53;4994129;28;20122;-62
2021/07/05 01:14:23;;;;;;;0.80;0.32;;;;;;;-142.37;100.00;59669.53;4994321;28;20026;-62
2021/07/05 01:16:48;;;;;;;1.85;0.30;;;;;;;-142.37;100.00;59669.53;4994100;28;20029;-62
2021/07/05 01:19:13;;;;;;;0.77;0.40;;;;;;;-142.37;100.00;59669.53;4994087;28;20026;-61
2021/07/05 01:21:39;;;;;;;1.55;0.45;;;;;;;-142.37;100.00;59669.53;4993585;28;20045;-61
2021/07/05 01:24:05;;;;;;;2.35;0.70;;;;;;;-142.37;100.00;59669.53;4993559;28;20105;-61
2021/07/05 01:26:30;;;;;;;1.95;0.93;;;;;;;-142.37;100.00;59669.53;4993952;28;20483;-61
2021/07/05 01:28:55;;;;;;;0.65;0.38;;;;;;;-142.37;100.00;59669.53;4993705;28;20565;-61
2021/07/05 01:31:23;;;;;;;2.45;0.63;;;;;;;-142.37;100.00;59669.53;4976338;28;20033;-61
2021/07/05 01:33:51;;;;;;;0.82;0.40;;;;;;;-142.37;100.00;59669.53;4993681;28;20029;-61
2021/07/05 01:36:16;;;;;;;0.82;0.35;;;;;;;-142.37;100.00;59669.53;4993653;28;20026;-62
2021/07/05 01:38:42;;;;;;;1.88;0.30;;;;;;;-142.37;100.00;59669.53;4993970;28;20026;-61
2021/07/05 01:41:08;;;;;;;2.45;0.50;;;;;;;-142.37;100.00;59669.53;4993745;28;20109;-61
2021/07/05 01:43:34;;;;;;;1.27;0.60;;;;;;;-142.37;100.00;59669.53;4993399;28;20384;-62
2021/07/05 01:46:00;;;;;;;2.70;0.45;;;;;;;-142.37;100.00;59669.53;4993546;28;20018;-62
2021/07/05 01:48:26;;;;;;;1.98;0.40;;;;;;;-142.37;100.00;59669.53;4993749;28;20034;-62
2021/07/05 01:50:55;;;;;;;1.23;0.40;;;;;;;-142.37;100.00;59669.53;4993273;28;20026;-61
2021/07/05 01:53:21;;;;;;;3.00;0.93;;;;;;;-142.37;100.00;59669.53;4993491;28;20049;-62
2021/07/05 01:55:47;;;;;;;0.73;0.30;;;;;;;-142.37;100.00;59669.53;4993414;28;20060;-62
2021/07/05 01:58:12;;;;;;;0.90;0.40;;;;;;;-142.37;100.00;59669.53;4993329;28;20058;-61
2021/07/05 02:00:45;;;;;;;0.75;0.30;;;;;;;-142.37;100.00;59669.53;4993395;28;20124;-61
2021/07/05 02:03:11;;;;;;;2.70;0.55;;;;;;;-142.37;100.00;59669.53;4993327;28;20030;-61
2021/07/05 02:05:37;;;;;;;1.05;0.43;;;;;;;-142.37;100.00;59669.53;4976176;28;20071;-61
2021/07/05 02:08:04;;;;;;;1.92;0.50;;;;;;;-142.37;100.00;59669.53;4993272;28;20118;-61
2021/07/05 02:10:34;;;;;;;1.00;0.40;;;;;;;-142.37;100.00;59669.53;4993530;28;20049;-61
2021/07/05 02:13:05;;;;;;;1.50;0.52;;;;;;;-142.37;100.00;59669.53;4993282;28;20109;-62
2021/07/05 02:15:30;;;;;;;1.00;0.40;;;;;;;-142.37;100.00;59669.53;4993337;28;20029;-61
2021/07/05 02:17:56;;;;;;;0.75;0.65;;;;;;;-142.37;100.00;59669.53;4993382;28;20022;-62
2021/07/05 02:20:24;;;;;;;1.85;0.32;;;;;;;-142.37;100.00;59669.53;4997146;28;20068;-62
2021/07/05 02:22:51;;;;;;;0.90;0.32;;;;;;;-142.37;100.00;59669.53;4997145;28;20073;-61
2021/07/05 02:25:18;;;;;;;1.02;0.40;;;;;;;-142.37;100.00;59669.53;4996959;28;20037;-62
2021/07/05 02:27:46;;;;;;;1.73;0.50;;;;;;;-142.37;100.00;59669.53;4997162;28;20029;-62
2021/07/05 02:30:16;;;;;;;0.60;0.30;;;;;;;-142.37;100.00;59669.53;4996796;28;20030;-62
2021/07/05 02:32:42;;;;;;;1.48;0.52;;;;;;;-142.37;100.00;59669.53;4996940;28;20018;-61
2021/07/05 02:35:09;;;;;;;1.95;0.50;;;;;;;-142.37;100.00;59669.53;4996856;28;20461;-61
2021/07/05 02:37:35;;;;;;;0.65;0.40;;;;;;;-142.37;100.00;59669.53;4996962;28;20034;-61
2021/07/05 02:40:03;;;;;;;0.20;0.20;;;;;;;-142.37;100.00;59669.53;5003404;28;20021;-62
2021/07/05 02:42:28;;;;;;;2.50;0.70;;;;;;;-142.37;100.00;59669.53;5012743;28;20460;-60
2021/07/05 02:44:54;;;;;;;1.10;0.45;;;;;;;-142.37;100.00;59669.53;4996718;28;20034;-61
2021/07/05 02:47:19;;;;;;;2.03;0.40;;;;;;;-142.37;100.00;59669.53;4996603;28;20046;-61
2021/07/05 02:49:44;;;;;;;0.35;0.30;;;;;;;-142.37;100.00;59669.53;4996667;28;20061;-61
2021/07/05 02:52:10;;;;;;;1.25;0.40;;;;;;;-142.37;100.00;59669.53;4979040;28;20026;-61
2021/07/05 02:54:36;;;;;;;0.90;0.30;;;;;;;-142.37;100.00;59669.53;4996684;28;20474;-61
2021/07/05 02:57:01;;;;;;;0.90;0.22;;;;;;;-142.37;100.00;59669.53;4996474;28;20022;-64
2021/07/05 02:59:27;;;;;;;2.22;0.40;;;;;;;-142.37;100.00;59669.53;4996140;28;20386;-61
2021/07/05 03:01:52;;;;;;;1.13;0.30;;;;;;;-142.37;100.00;59669.53;4996245;28;20499;-62
2021/07/05 03:04:17;;;;;;;0.80;0.32;;;;;;;-142.37;100.00;59669.53;4979101;28;20022;-62
2021/07/05 03:06:43;;;;;;;0.60;0.38;;;;;;;-142.37;100.00;59669.53;4996447;28;20026;-61
2021/07/05 03:09:08;;;;;;;0.40;0.20;;;;;;;-142.37;100.00;59669.53;4996172;28;20061;-61
2021/07/05 03:11:33;;;;;;;0.85;0.35;;;;;;;-142.37;100.00;59669.53;4996492;28;20382;-62
2021/07/05 03:13:59;;;;;;;0.50;0.20;;;;;;;-142.37;100.00;59669.53;4996085;28;20023;-61
2021/07/05 03:16:24;;;;;;;0.93;0.38;;;;;;;-142.37;100.00;59669.53;4996294;28;20461;-61
2021/07/05 03:18:49;;;;;;;1.52;0.60;;;;;;;-142.37;100.00;59669.53;4996261;28;20456;-61
2021/07/05 03:21:15;;;;;;;0.80;0.30;;;;;;;-142.37;100.00;59669.53;4996165;28;20049;-61
2021/07/05 03:23:40;;;;;;;0.80;0.30;;;;;;;-142.37;100.00;59669.53;4996164;28;20022;-61
2021/07/05 03:26:05;;;;;;;1.23;0.38;;;;;;;-142.37;100.00;59669.53;4996054;28;20589;-61
2021/07/05 03:28:30;;;;;;;0.85;0.25;;;;;;;-142.37;100.00;59669.53;4995872;28;20027;-61
2021/07/05 03:30:56;;;;;;;0.73;0.30;;;;;;;-142.37;100.00;59669.53;4978322;28;20029;-61
2021/07/05 03:33:21;;;;;;;0.70;0.25;;;;;;;-142.37;100.00;59669.53;4978253;28;20022;-62
2021/07/05 03:35:49;;;;;;;0.52;0.20;;;;;;;-142.37;100.00;59669.53;4995540;28;20026;-62
2021/07/05 03:38:16;;;;;;;1.45;0.30;;;;;;;-142.37;100.00;59669.53;4995578;28;20034;-61
2021/07/05 03:40:42;;;;;;;0.70;0.40;;;;;;;-142.37;100.00;59669.53;4995907;28;20026;-62
2021/07/05 03:43:07;;;;;;;0.60;0.25;;;;;;;-142.37;100.00;59669.53;4995619;28;20365;-62
2021/07/05 03:45:36;;;;;;;1.10;0.40;;;;;;;-142.37;100.00;59669.53;4995755;28;20126;-62
2021/07/05 03:48:03;;;;;;;0.50;0.20;;;;;;;-142.37;100.00;59669.53;4995615;28;20524;-61
2021/07/05 03:50:29;;;;;;;0.85;0.30;;;;;;;-142.37;100.00;59669.53;4995109;28;20038;-62
2021/07/05 03:52:54;;;;;;;0.93;0.20;;;;;;;-142.37;100.00;59669.53;5008884;28;20036;-61
2021/07/05 03:55:23;;;;;;;0.35;0.03;;;;;;;-142.37;100.00;59669.53;5014183;28;20515;-61
2021/07/05 03:57:50;;;;;;;1.38;0.20;;;;;;;-142.37;100.00;59669.53;5008968;28;20129;-61
2021/07/05 04:00:22;;;;;;;1.05;0.15;;;;;;;-142.37;100.00;59669.53;4995257;28;20030;-62
2021/07/05 04:02:48;;;;;;;0.77;0.32;;;;;;;-142.37;100.00;59669.53;4995302;28;20065;-61
2021/07/05 04:05:14;;;;;;;0.75;0.22;;;;;;;-142.37;100.00;59669.53;4995196;28;20026;-61
2021/07/05 04:07:42;;;;;;;0.82;0.40;;;;;;;-142.37;100.00;59669.53;4995181;28;20037;-61
2021/07/05 04:10:08;;;;;;;0.17;0.10;;;;;;;-142.37;100.00;59669.53;4995197;28;20026;-62
2021/07/05 04:12:34;;;;;;;0.20;0.15;;;;;;;-142.37;100.00;59669.53;4995302;28;20066;-61
2021/07/05 04:15:00;;;;;;;2.08;0.30;;;;;;;-142.37;100.00;59669.53;4994905;28;20571;-61
2021/07/05 04:17:25;;;;;;;0.82;0.22;;;;;;;-142.37;100.00;59669.53;4995272;28;20474;-62
2021/07/05 04:19:51;;;;;;;0.43;0.20;;;;;;;-142.37;100.00;59669.53;4994981;28;20093;-62
2021/07/05 04:22:18;;;;;;;0.90;0.20;;;;;;;-142.37;100.00;59669.53;4994767;28;20042;-61
2021/07/05 04:24:44;;;;;;;1.08;0.22;;;;;;;-142.37;100.00;59669.53;5007230;28;20473;-62
2021/07/05 04:27:11;;;;;;;0.40;0.10;;;;;;;-142.37;100.00;59669.53;5004733;28;20113;-62
2021/07/05 04:29:37;;;;;;;0.30;0.10;;;;;;;-142.37;100.00;59669.53;4995005;28;20030;-62
2021/07/05 04:32:04;;;;;;;0.47;0.32;;;;;;;-142.37;100.00;59669.53;5008963;28;20030;-62
2021/07/05 04:34:29;;;;;;;0.20;0.10;;;;;;;-142.37;100.00;59669.53;4995999;28;20030;-61
2021/07/05 04:36:55;;;;;;;1.00;0.30;;;;;;;-142.37;100.00;59669.53;5014164;28;20373;-61
2021/07/05 04:39:20;;;;;;;1.60;0.30;;;;;;;-142.37;100.00;59669.53;4994929;28;20050;-61
2021/07/05 04:41:45;;;;;;;1.20;0.30;;;;;;;-142.37;100.00;59669.53;5006738;28;20464;-61
2021/07/05 04:44:13;;;;;;;1.80;0.35;;;;;;;-142.37;100.00;59669.53;5014147;28;20468;-61
2021/07/05 04:46:40;;;;;;;0.80;0.20;;;;;;;-142.37;100.00;59669.53;5013837;28;20104;-62
2021/07/05 04:49:05;;;;;;;0.55;0.20;;;;;;;-142.37;100.00;59669.53;5014208;28;20025;-61
2021/07/05 04:51:30;;;;;;;0.60;0.10;;;;;;;-142.37;100.00;59669.53;5014117;28;20030;-61
2021/07/05 04:53:56;;;;;;;0.80;0.40;;;;;;;-142.37;100.00;59669.53;5013882;28;20022;-62
2021/07/05 04:56:22;;;;;;;0.73;0.22;;;;;;;-142.37;100.00;59669.53;5012857;28;20053;-62
2021/07/05 04:58:47;;;;;;;3.25;0.60;;;;;;;-142.37;100.00;59669.53;5013724;28;20081;-62
2021/07/05 05:01:12;;;;;;;0.50;0.20;;;;;;;-142.37;100.00;59669.53;4995800;28;20034;-62
2021/07/05 05:03:39;;;;;;;1.30;0.20;;;;;;;-142.37;100.00;59669.53;4994234;28;20509;-62
2021/07/05 05:06:05;;;;;;;1.38;0.30;;;;;;;-142.37;100.00;59669.53;4994196;28;20038;-62
2021/07/05 05:08:30;;;;;;;1.35;0.20;;;;;;;-142.37;100.00;59669.53;4994005;28;20045;-62
2021/07/05 05:10:55;;;;;;;1.00;0.20;;;;;;;-142.37;100.00;59669.53;4976441;28;20029;-62
2021/07/05 05:13:21;;;;;;;0.98;0.35;;;;;;;-142.37;100.00;59669.53;4994194;28;20389;-61
2021/07/05 05:15:46;;;;;;;0.60;0.20;;;;;;;-142.37;100.00;59669.53;4994043;28;20117;-62
2021/07/05 05:18:12;;;;;;;0.50;0.30;;;;;;;-142.37;100.00;59669.53;4994199;28;20413;-61
2021/07/05 05:20:37;;;;;;;0.60;0.28;;;;;;;-142.37;100.00;59669.53;4994080;28;20026;-61
2021/07/05 05:23:02;;;;;;;1.00;0.20;;;;;;;-142.37;100.00;59669.53;4976458;28;20073;-62
2021/07/05 05:25:28;;;;;;;0.93;0.30;;;;;;;-142.37;100.00;59669.53;4993906;28;20465;-61
2021/07/05 05:27:54;;;;;;;0.43;0.30;;;;;;;-142.37;100.00;59669.53;4993846;28;20026;-62
2021/07/05 05:30:21;;;;;;;1.73;0.40;;;;;;;-142.37;100.00;59669.53;4994918;28;20501;-62
2021/07/05 05:32:48;;;;;;;1.67;0.50;;;;;;;-142.37;100.00;59669.53;5013555;28;20461;-62
2021/07/05 05:35:18;;;;;;;2.22;0.45;;;;;;;-142.37;100.00;59669.53;4995541;28;20600;-61
2021/07/05 05:37:44;;;;;;;1.73;0.68;;;;;;;-142.37;100.00;59669.53;5013457;28;20045;-62
2021/07/05 05:40:10;;;;;;;1.17;0.38;;;;;;;-142.37;100.00;59669.53;5013008;28;20033;-62
2021/07/05 05:42:36;;;;;;;0.93;0.20;;;;;;;-142.37;100.00;59669.53;5013386;28;20400;-62
2021/07/05 05:45:02;;;;;;;1.58;0.40;;;;;;;-142.37;100.00;59669.53;5013347;28;20540;-62
2021/07/05 05:47:27;;;;;;;2.35;0.60;;;;;;;-142.37;100.00;59669.53;5013235;28;20053;-62
2021/07/05 05:49:53;;;;;;;0.40;0.20;;;;;;;-142.37;100.00;59669.53;5013226;28;20060;-62
2021/07/05 05:52:18;;;;;;;2.05;0.40;;;;;;;-142.37;100.00;59669.53;5013190;28;20515;-62
2021/07/05 05:54:43;;;;;;;2.03;0.60;;;;;;;-142.37;100.00;59669.53;5016388;28;20057;-62
2021/07/05 05:57:24;;;;;;;2.17;0.38;;;;;;;-142.37;100.00;59669.53;5016246;28;20033;-62
2021/07/05 05:59:50;;;;;;;3.45;0.35;;;;;;;-142.37;100.00;59669.53;5002403;28;20046;-61
2021/07/05 06:02:16;;;;;;;0.95;0.30;;;;;;;-142.37;100.00;59669.53;5011760;28;20523;-62
2021/07/05 06:04:41;;;;;;;0.73;0.20;;;;;;;-142.37;100.00;59669.53;5016562;28;20400;-62
2021/07/05 06:07:07;;;;;;;0.65;0.38;;;;;;;-142.37;100.00;59669.53;5016670;28;20028;-62
2021/07/05 06:09:32;;;;;;;1.35;0.65;;;;;;;-142.37;100.00;59669.53;5014858;28;20071;-62
2021/07/05 06:11:57;;;;;;;0.93;0.40;;;;;;;-142.37;100.00;59669.53;5006452;28;20050;-61
2021/07/05 06:14:23;;;;;;;0.52;0.17;;;;;;;-142.37;100.00;59669.53;4997793;28;20023;-61
2021/07/05 06:16:48;;;;;;;1.50;0.47;;;;;;;-142.37;100.00;59669.53;5013028;28;20029;-60
2021/07/05 06:19:14;;;;;;;2.85;0.45;;;;;;;-142.37;100.00;59669.53;5013942;28;20036;-61
2021/07/05 06:21:39;;;;;;;0.88;0.20;;;;;;;-142.37;100.00;59669.53;5017279;28;20074;-61
2021/07/05 06:24:05;;;;;;;1.35;0.40;;;;;;;-142.37;100.00;59669.53;5005872;28;20034;-61
2021/07/05 06:26:31;;;;;;;0.98;0.13;;;;;;;-142.37;100.00;59669.53;4997598;28;20026;-61
2021/07/05 06:28:56;;;;;;;0.52;0.22;;;;;;;-142.37;100.00;59669.53;4997246;28;20060;-61
2021/07/05 06:31:23;;;;;;;4.10;0.60;;;;;;;-142.37;100.00;59669.53;4997688;28;20366;-61
2021/07/05 06:33:48;;;;;;;2.55;0.40;;;;;;;-142.37;100.00;59669.53;5008083;28;20018;-61
2021/07/05 06:36:14;;;;;;;1.52;0.30;;;;;;;-142.37;100.00;59669.53;5016356;28;20669;-61
2021/07/05 06:38:40;;;;;;;0.68;0.35;;;;;;;-142.37;100.00;59669.53;5013186;28;20388;-61
2021/07/05 06:41:05;;;;;;;1.17;0.30;;;;;;;-142.37;100.00;59669.53;5016092;28;20129;-60
2021/07/05 06:43:31;;;;;;;1.17;0.28;;;;;;;-142.37;100.00;59669.53;5016185;28;20104;-61
2021/07/05 06:45:56;;;;;;;0.52;0.20;;;;;;;-142.37;100.00;59669.53;5008398;28;20069;-61
2021/07/05 06:48:21;;;;;;;0.55;0.22;;;;;;;-142.37;100.00;59669.53;4998670;28;20026;-61
2021/07/05 06:50:47;;;;;;;1.05;0.20;;;;;;;-142.37;100.00;59669.53;5016089;28;20030;-61
2021/07/05 06:53:12;;;;;;;0.60;0.20;;;;;;;-142.37;100.00;59669.53;5015835;28;20034;-61
2021/07/05 06:55:38;;;;;;;2.03;0.57;;;;;;;-142.37;100.00;59669.53;5008940;28;20030;-61
2021/07/05 06:58:03;;;;;;;2.35;0.40;;;;;;;-142.37;100.00;59669.53;5013637;28;20042;-61
2021/07/05 07:00:30;;;;;;;2.33;0.65;;;;;;;-142.37;100.00;59669.53;5012045;28;20042;-62
2021/07/05 07:02:57;;;;;;;1.67;0.47;;;;;;;-142.37;100.00;59669.53;5015136;28;20028;-61
2021/07/05 07:05:24;;;;;;;3.55;0.73;;;;;;;-142.37;100.00;59669.53;5013471;28;20026;-62
2021/07/05 07:07:52;;;;;;;0.98;0.35;;;;;;;-142.37;100.00;59669.53;5016148;28;20014;-63
2021/07/05 07:10:19;;;;;;;1.35;0.30;;;;;;;-142.37;100.00;59669.53;5015655;28;20041;-63
2021/07/05 07:12:48;;;;;;;0.60;0.50;;;;;;;-142.37;100.00;59669.53;5015588;28;20105;-62
2021/07/05 07:15:17;;;;;;;1.17;0.22;;;;;;;-142.37;100.00;59669.53;5015891;28;20089;-62
2021/07/05 07:17:49;;;;;;;0.70;0.20;;;;;;;-142.37;100.00;59669.53;5015900;28;20025;-62
2021/07/05 07:20:15;;;;;;;1.27;0.52;;;;;;;-142.37;100.00;59669.53;5010008;28;20516;-61
2021/07/05 07:22:40;;;;;;;1.95;0.55;;;;;;;-142.37;100.00;59669.53;5015293;28;20125;-61
2021/07/05 07:25:09;;;;;;;2.95;0.50;;;;;;;-142.37;100.00;59669.53;5012568;28;20022;-61
2021/07/05 07:27:34;;;;;;;0.55;0.10;;;;;;;-142.37;100.00;59669.53;5014232;28;20017;-62
2021/07/05 07:30:01;;;;;;;1.30;0.40;;;;;;;-142.37;100.00;59669.53;5004516;28;20350;-61
2021/07/05 07:32:26;;;;;;;2.40;0.70;;;;;;;-142.37;100.00;59669.53;5015445;28;20045;-61
2021/07/05 07:34:52;;;;;;;0.88;0.28;;;;;;;-142.37;100.00;59669.53;4997831;28;20033;-61
2021/07/05 07:37:17;;;;;;;2.03;0.40;;;;;;;-142.37;100.00;59669.53;5015308;28;20358;-61
2021/07/05 07:39:53;;;;;;;0.80;0.40;;;;;;;-142.37;100.00;59669.53;5015159;28;20022;-60
2021/07/05 07:42:19;;;;;;;2.33;0.40;;;;;;;-142.37;100.00;59669.53;5004210;28;20022;-61
2021/07/05 07:44:44;;;;;;;1.75;0.40;;;;;;;-142.37;100.00;59669.53;5003287;28;20021;-61
2021/07/05 07:47:11;;;;;;;1.70;0.40;;;;;;;-142.37;100.00;59669.53;5014867;28;20029;-60
2021/07/05 07:49:36;;;;;;;1.27;0.57;;;;;;;-142.37;100.00;59669.53;5015026;28;20026;-61
2021/07/05 07:52:03;;;;;;;0.55;0.30;;;;;;;-142.37;100.00;59669.53;5014354;28;20416;-61
2021/07/05 07:54:29;;;;;;;1.98;0.70;;;;;;;-142.37;100.00;59669.53;5014217;28;20121;-60
2021/07/05 07:56:54;;;;;;;3.47;0.60;;;;;;;-142.37;100.00;59669.53;5004206;28;20129;-61
2021/07/05 07:59:19;;;;;;;2.33;0.75;;;;;;;-142.37;100.00;59669.53;4989947;28;20045;-60
2021/07/05 08:01:45;;;;;;;0.82;0.38;;;;;;;-142.37;100.00;59669.53;5006523;28;20027;-61
2021/07/05 08:04:11;;;;;;;4.15;0.63;;;;;;;-142.37;100.00;59669.53;5014300;28;20113;-60
2021/07/05 08:06:37;;;;;;;1.65;0.85;;;;;;;-142.37;100.00;59669.53;5014956;28;20144;-60
2021/07/05 08:09:05;;;;;;;0.98;0.40;;;;;;;-142.37;100.00;59669.53;4997783;28;20112;-61
2021/07/05 08:11:31;;;;;;;2.42;1.23;;;;;;;-142.37;100.00;59669.53;5015318;28;20083;-60
2021/07/05 08:14:00;;;;;;;2.45;0.82;;;;;;;-142.37;100.00;59669.53;5009547;28;20370;-61
2021/07/05 08:16:26;;;;;;;2.17;0.20;;;;;;;-142.37;100.00;59669.53;4995613;28;20033;-61
2021/07/05 08:18:51;;;;;;;2.17;0.55;;;;;;;-142.37;100.00;59669.53;5007830;28;20038;-60
2021/07/05 08:21:17;;;;;;;2.38;0.65;;;;;;;-142.37;100.00;59669.53;4998653;28;20034;-61
2021/07/05 08:23:43;;;;;;;1.15;0.50;;;;;;;-142.37;100.00;59669.53;4980602;28;20469;-61
2021/07/05 08:26:09;;;;;;;3.08;0.70;;;;;;;-142.37;100.00;59669.53;5006736;28;20413;-61
2021/07/05 08:28:35;;;;;;;1.83;0.60;;;;;;;-142.37;100.00;59669.53;5005263;28;20030;-61
2021/07/05 08:31:01;;;;;;;1.80;0.47;;;;;;;-142.37;100.00;59669.53;5003569;28;20019;-61
2021/07/05 08:33:27;;;;;;;2.00;0.47;;;;;;;-142.37;100.00;59669.53;5005441;28;20372;-61
2021/07/05 08:35:53;;;;;;;3.47;0.60;;;;;;;-142.37;100.00;59669.53;5006482;28;20113;-61
2021/07/05 08:38:18;;;;;;;1.83;0.70;;;;;;;-142.37;100.00;59669.53;5013469;28;20032;-61
2021/07/05 08:40:44;;;;;;;2.60;0.45;;;;;;;-142.37;100.00;59669.53;5013788;28;20030;-61
2021/07/05 08:43:10;;;;;;;0.85;0.35;;;;;;;-142.37;100.00;59669.53;5007330;28;20481;-60
2021/07/05 08:45:36;;;;;;;3.05;0.80;;;;;;;-142.37;100.00;59669.53;5010591;28;20343;-60
2021/07/05 08:48:03;;;;;;;1.00;0.20;;;;;;;-142.37;100.00;59669.53;5002699;28;20057;-61
2021/07/05 08:50:29;;;;;;;3.63;0.90;;;;;;;-142.37;100.00;59669.53;5014448;28;20117;-60
2021/07/05 08:52:55;;;;;;;2.08;0.52;;;;;;;-142.37;100.00;59669.53;5010406;28;20030;-60
2021/07/05 08:55:23;;;;;;;0.73;0.32;;;;;;;-142.37;100.00;59669.53;5013737;28;20029;-61
2021/07/05 08:57:49;;;;;;;1.52;0.60;;;;;;;-142.37;100.00;59669.53;5013871;28;20053;-60
2021/07/05 09:00:20;;;;;;;0.70;0.45;;;;;;;-142.37;100.00;59669.53;5013083;28;20026;-61
2021/07/05 09:02:47;;;;;;;0.75;0.35;;;;;;;-142.37;100.00;59669.53;5004996;28;20357;-61
2021/07/05 09:05:13;;;;;;;2.30;0.70;;;;;;;-142.37;100.00;59669.53;5009449;28;20030;-60
2021/07/05 09:08:02;;;;;;;1.55;0.50;;;;;;;-142.37;100.00;59669.53;5013691;28;20054;-61
2021/07/05 09:10:29;;;;;;;1.15;0.45;;;;;;;-142.37;100.00;59669.53;5008997;28;20097;-61
2021/07/05 09:13:09;;;;;;;0.93;0.40;;;;;;;-142.37;100.00;59669.53;5005434;28;20029;-62
2021/07/05 09:15:40;;;;;;;1.92;0.40;;;;;;;-142.37;100.00;59669.53;5003328;28;20029;-61
2021/07/05 09:18:25;;;;;;;1.75;0.50;;;;;;;-142.37;100.00;59669.53;5002798;28;20653;-61
2021/07/05 09:20:52;;;;;;;3.15;0.50;;;;;;;-142.37;100.00;59669.53;5004839;28;20054;-62
2021/07/05 09:23:18;;;;;;;1.35;0.30;;;;;;;-142.37;100.00;59669.53;5004253;28;20034;-63
2021/07/05 09:25:49;;;;;;;1.10;0.55;;;;;;;-142.37;100.00;59669.53;5010215;28;20037;-61
2021/07/05 09:28:16;;;;;;;1.55;0.47;;;;;;;-142.37;100.00;59669.53;5009430;28;20029;-61
2021/07/05 09:30:47;;;;;;;1.63;0.40;;;;;;;-142.37;100.00;59669.53;5002830;28;20429;-61
2021/07/05 09:33:28;;;;;;;3.65;1.23;;;;;;;-142.37;100.00;59669.53;5009535;28;20072;-62
2021/07/05 09:35:59;;;;;;;1.23;0.52;;;;;;;-142.37;100.00;59669.53;5006903;28;20057;-61
2021/07/05 09:38:41;;;;;;;1.10;0.47;;;;;;;-142.37;100.00;59669.53;4999197;28;20048;-61
2021/07/05 09:41:28;;;;;;;1.60;0.50;;;;;;;-142.37;100.00;59669.53;5003856;28;20061;-61
2021/07/05 09:44:01;;;;;;;1.45;0.40;;;;;;;-142.37;100.00;59669.53;5003561;28;20054;-62
2021/07/05 09:46:45;;;;;;;1.33;0.85;;;;;;;-142.37;100.00;59669.53;5004295;28;20041;-62
2021/07/05 09:49:31;;;;;;;3.67;1.05;;;;;;;-142.37;100.00;59669.53;5001642;28;20030;-65
2021/07/05 09:52:06;;;;;;;4.75;0.68;;;;;;;-142.37;100.00;59669.53;5003510;28;20030;-64
2021/07/05 09:54:33;;;;;;;2.63;0.90;;;;;;;-142.37;100.00;59669.53;5001062;28;20022;-66
2021/07/05 09:57:00;;;;;;;2.17;0.98;;;;;;;-142.37;100.00;59669.53;5000705;28;20057;-67
2021/07/05 09:59:25;;;;;;;4.00;1.02;;;;;;;-142.37;100.00;59669.53;5003120;28;20089;-61
2021/07/05 10:01:53;;;;;;;3.95;1.15;;;;;;;-142.37;100.00;59669.53;5006276;28;20026;-62
2021/07/05 10:04:42;;;;;;;2.35;0.95;;;;;;;-142.37;100.00;59669.53;5011024;28;20535;-61
2021/07/05 10:07:07;;;;;;;3.80;0.75;;;;;;;-142.37;100.00;59669.53;5009108;28;20150;-60
2021/07/05 10:09:38;;;;;;;4.00;1.23;;;;;;;-142.37;100.00;59669.53;5012363;28;20108;-60
2021/07/05 10:12:18;;;;;;;2.70;0.70;;;;;;;-142.37;100.00;59669.53;5011701;28;20025;-60
2021/07/05 10:14:52;;;;;;;1.58;0.52;;;;;;;-142.37;100.00;59669.53;5012077;28;20022;-60
2021/07/05 10:17:17;;;;;;;1.75;0.65;;;;;;;-142.37;100.00;59669.53;5012064;28;20026;-60
2021/07/05 10:19:43;;;;;;;2.63;0.70;;;;;;;-142.37;100.00;59669.53;5012040;28;20036;-60
2021/07/05 10:22:13;;;;;;;2.20;0.45;;;;;;;-142.37;100.00;59669.53;5011974;28;20018;-60
2021/07/05 10:24:43;;;;;;;1.83;0.43;;;;;;;-142.37;100.00;59669.53;5011748;28;20503;-60
2021/07/05 10:27:10;;;;;;;1.40;0.47;;;;;;;-142.37;100.00;59669.53;5013105;28;20030;-60
2021/07/05 10:29:41;;;;;;;1.63;0.70;;;;;;;-142.37;100.00;59669.53;5011577;28;20072;-60
2021/07/05 10:32:08;;;;;;;2.15;0.52;;;;;;;-142.37;100.00;59669.53;5013274;28;20029;-60
2021/07/05 10:34:36;;;;;;;1.38;0.38;;;;;;;-142.37;100.00;59669.53;5013375;28;20350;-61
2021/07/05 10:37:04;;;;;;;2.00;1.10;;;;;;;-142.37;100.00;59669.53;5010978;28;20763;-60
2021/07/05 10:39:31;;;;;;;3.33;0.60;;;;;;;-142.37;100.00;59669.53;4977367;28;20500;-60
2021/07/05 10:41:57;;;;;;;1.65;0.45;;;;;;;-142.37;100.00;59669.53;4997338;28;20030;-61
2021/07/05 10:44:40;;;;;;;3.80;1.00;;;;;;;-142.37;100.00;59669.53;4997356;28;20566;-60
2021/07/05 10:47:05;;;;;;;0.50;0.30;;;;;;;-142.37;100.00;59669.53;4997325;28;20041;-60
2021/07/05 10:49:31;;;;;;;2.30;0.77;;;;;;;-142.37;100.00;59669.53;4997437;28;20026;-60
2021/07/05 10:52:16;;;;;;;1.02;0.45;;;;;;;-142.37;100.00;59669.53;4997162;28;20065;-61
2021/07/05 10:54:44;;;;;;;1.08;0.35;;;;;;;-142.37;100.00;59669.53;4997212;28;20049;-60
2021/07/05 10:57:10;;;;;;;0.95;0.40;;;;;;;-142.37;100.00;59669.53;4997150;28;20100;-59
2021/07/05 10:59:39;;;;;;;1.25;0.35;;;;;;;-142.37;100.00;59669.53;5006186;28;20085;-60
2021/07/05 11:02:33;;;;;;;0.95;0.20;;;;;;;-142.37;100.00;59669.53;5016355;28;20060;-60
2021/07/05 11:04:59;;;;;;;2.33;0.45;;;;;;;-142.37;100.00;59669.53;5015871;28;20034;-59
2021/07/05 11:07:42;;;;;;;2.90;0.45;;;;;;;-142.37;100.00;59669.53;5015679;28;20037;-59
2021/07/05 11:10:23;;;;;;;1.10;0.10;;;;;;;-142.37;100.00;59669.53;5013394;28;20054;-61